Time;durP1;ratioP1;P1;durP2;ratioP2;P2;SDS_P1;SDS_P2;PMS_P1;PMS_P2;Temp;Humidity;BMP_temperature;BMP_pressure;BME280_temperature;BME280_humidity;BME280_pressure;Samples;Min_cycle;Max_cycle;Signal;HPM_P1;HPM_P2
2023/10/19 00:02:08;;;;;;;;;;;17.00;99.90;;;;;;4901586;29;19962;-79
2023/10/19 00:04:35;;;;;;;;;;;17.00;99.90;;;;;;4901598;29;19907;-79
2023/10/19 00:07:04;;;;;;;;;;;17.00;99.90;;;;;;4901761;29;19919;-79
2023/10/19 00:09:36;;;;;;;;;;;17.00;99.90;;;;;;4905151;29;19955;-74
2023/10/19 00:12:02;;;;;;;;;;;17.10;99.90;;;;;;4911345;29;19907;-74
2023/10/19 00:14:28;;;;;;;;;;;17.10;99.90;;;;;;4901642;29;20019;-79
2023/10/19 00:16:56;;;;;;;;;;;17.20;99.90;;;;;;4901174;29;20324;-79
2023/10/19 00:19:22;;;;;;;;;;;17.20;99.90;;;;;;4901540;29;19914;-80
2023/10/19 00:21:50;;;;;;;;;;;17.20;99.90;;;;;;4901447;29;19907;-74
2023/10/19 00:24:22;;;;;;;;;;;17.30;99.90;;;;;;4901511;29;20294;-74
2023/10/19 00:26:48;;;;;;;;;;;17.20;99.90;;;;;;4901154;29;19907;-79
2023/10/19 00:31:59;;;;;;;;;;;17.30;99.90;;;;;;4901595;29;19914;-80
2023/10/19 00:34:25;;;;;;;;;;;17.30;99.90;;;;;;4901357;29;19980;-80
2023/10/19 00:36:51;;;;;;;;;;;17.30;99.90;;;;;;4900877;29;20396;-74
2023/10/19 00:39:27;;;;;;;;;;;17.30;99.90;;;;;;4901217;29;19917;-80
2023/10/19 00:41:56;;;;;;;;;;;17.30;99.90;;;;;;4901142;29;19908;-80
2023/10/19 00:44:25;;;;;;;;;;;17.40;99.90;;;;;;4901240;29;19911;-80
2023/10/19 00:47:00;;;;;;;;;;;17.40;99.90;;;;;;4917433;29;19919;-80
2023/10/19 00:49:26;;;;;;;;;;;17.40;99.90;;;;;;4938414;29;19913;-74
2023/10/19 00:54:24;;;;;;;;;;;17.40;99.90;;;;;;4938414;29;19907;-80
2023/10/19 00:56:51;;;;;;;;;;;17.40;99.90;;;;;;4937363;29;20397;-80
2023/10/19 00:59:30;;;;;;;;;;;17.50;99.90;;;;;;4938443;29;19907;-80
2023/10/19 01:04:42;;;;;;;;;;;17.60;99.90;;;;;;4938643;29;19914;-74
2023/10/19 01:07:27;;;;;;;;;;;17.70;99.90;;;;;;4938232;29;20001;-75
2023/10/19 01:09:57;;;;;;;;;;;17.70;99.90;;;;;;4937054;29;19917;-80
2023/10/19 01:12:28;;;;;;;;;;;17.80;99.90;;;;;;4926493;29;19946;-80
2023/10/19 01:15:07;;;;;;;;;;;17.80;99.90;;;;;;4919217;29;20290;-74
2023/10/19 01:17:39;;;;;;;;;;;17.80;99.90;;;;;;4919230;29;20346;-74
2023/10/19 01:20:33;;;;;;;;;;;17.80;99.90;;;;;;4919390;29;19907;-80
2023/10/19 01:28:25;;;;;;;;;;;17.90;99.90;;;;;;4918870;29;20382;-74
2023/10/19 01:30:53;;;;;;;;;;;18.00;99.90;;;;;;4919170;29;20271;-79
2023/10/19 01:33:20;;;;;;;;;;;18.00;99.90;;;;;;4918829;29;19907;-80
2023/10/19 01:38:33;;;;;;;;;;;18.10;99.90;;;;;;4918910;29;19998;-80
2023/10/19 01:41:05;;;;;;;;;;;18.00;99.90;;;;;;4918527;29;19907;-74
2023/10/19 01:43:31;;;;;;;;;;;18.10;99.90;;;;;;4918598;29;19979;-74
2023/10/19 01:45:57;;;;;;;;;;;18.00;99.90;;;;;;4929948;29;19922;-80
2023/10/19 01:48:33;;;;;;;;;;;18.00;99.90;;;;;;4926713;29;19922;-80
2023/10/19 01:50:59;;;;;;;;;;;18.00;99.90;;;;;;4918565;29;19907;-80
2023/10/19 01:53:25;;;;;;;;;;;18.00;99.90;;;;;;4918507;29;19911;-74
2023/10/19 01:55:57;;;;;;;;;;;17.90;99.90;;;;;;4917775;29;20386;-75
2023/10/19 01:58:25;;;;;;;;;;;18.00;99.90;;;;;;4918771;29;19919;-79
2023/10/19 02:00:54;;;;;;;;;;;18.00;99.90;;;;;;4919154;29;19950;-79
2023/10/19 02:03:22;;;;;;;;;;;18.00;99.90;;;;;;4918949;29;20314;-79
2023/10/19 02:05:50;;;;;;;;;;;18.10;99.90;;;;;;4918881;29;20280;-74
2023/10/19 02:08:17;;;;;;;;;;;18.10;99.90;;;;;;4918527;29;20275;-74
2023/10/19 02:10:48;;;;;;;;;;;18.10;99.90;;;;;;4904827;29;19915;-79
2023/10/19 02:13:15;;;;;;;;;;;18.10;99.90;;;;;;4918349;29;19907;-80
2023/10/19 02:15:42;;;;;;;;;;;18.00;99.90;;;;;;4918610;29;20325;-79
2023/10/19 02:18:08;;;;;;;;;;;18.00;99.90;;;;;;4918701;29;19956;-79
2023/10/19 02:20:34;;;;;;;;;;;18.00;99.90;;;;;;4917740;29;19963;-74
2023/10/19 02:23:03;;;;;;;;;;;18.00;99.90;;;;;;4918494;29;19907;-74
2023/10/19 02:25:33;;;;;;;;;;;18.00;99.90;;;;;;4918365;29;19911;-79
2023/10/19 02:27:59;;;;;;;;;;;18.00;99.90;;;;;;4918525;29;19907;-74
2023/10/19 02:30:25;;;;;;;;;;;18.10;99.90;;;;;;4917938;29;19998;-79
2023/10/19 02:32:50;;;;;;;;;;;18.10;99.90;;;;;;4918121;29;20316;-74
2023/10/19 02:35:16;;;;;;;;;;;18.10;99.90;;;;;;4917958;29;19911;-74
2023/10/19 02:37:41;;;;;;;;;;;18.20;99.90;;;;;;4918039;29;19958;-79
2023/10/19 02:40:19;;;;;;;;;;;18.20;99.90;;;;;;4918235;29;20002;-79
2023/10/19 02:42:47;;;;;;;;;;;18.20;99.90;;;;;;4918001;29;20363;-79
2023/10/19 02:45:16;;;;;;;;;;;18.30;99.90;;;;;;4922011;29;19917;-74
2023/10/19 02:47:42;;;;;;;;;;;18.30;99.90;;;;;;4936709;29;19915;-74
2023/10/19 02:50:13;;;;;;;;;;;18.30;99.90;;;;;;4936820;29;19910;-79
2023/10/19 02:52:40;;;;;;;;;;;18.40;99.90;;;;;;4937050;29;19914;-79
2023/10/19 02:55:06;;;;;;;;;;;18.40;99.90;;;;;;4936707;29;19907;-79
2023/10/19 02:57:32;;;;;;;;;;;18.40;99.90;;;;;;4935455;29;20441;-79
2023/10/19 02:59:59;;;;;;;;;;;18.50;99.90;;;;;;4936434;29;19914;-74
2023/10/19 03:02:26;;;;;;;;;;;18.60;99.90;;;;;;4936606;29;19913;-80
2023/10/19 03:04:54;;;;;;;;;;;18.60;99.90;;;;;;4936533;29;19910;-80
2023/10/19 03:07:20;;;;;;;;;;;18.60;99.90;;;;;;4936428;29;19911;-79
2023/10/19 03:09:48;;;;;;;;;;;18.60;99.90;;;;;;4929166;29;19931;-79
2023/10/19 03:12:14;;;;;;;;;;;18.60;99.90;;;;;;4928210;29;19907;-80
2023/10/19 03:14:43;;;;;;;;;;;18.60;99.90;;;;;;4936432;29;19906;-74
2023/10/19 03:17:09;;;;;;;;;;;18.70;99.90;;;;;;4936123;29;19915;-80
2023/10/19 03:19:38;;;;;;;;;;;18.90;99.90;;;;;;4936139;29;20007;-79
2023/10/19 03:22:05;;;;;;;;;;;19.20;99.90;;;;;;4935354;29;19959;-80
2023/10/19 03:24:40;;;;;;;;;;;19.40;99.90;;;;;;4936243;29;19911;-74
2023/10/19 03:27:24;;;;;;;;;;;19.40;99.90;;;;;;4936124;29;20010;-74
2023/10/19 03:30:00;;;;;;;;;;;19.40;99.90;;;;;;4918872;29;19961;-80
2023/10/19 03:32:26;;;;;;;;;;;19.30;99.90;;;;;;4935977;29;20005;-80
2023/10/19 03:34:55;;;;;;;;;;;19.40;99.90;;;;;;4936111;29;19953;-80
2023/10/19 03:37:25;;;;;;;;;;;19.30;99.90;;;;;;4935642;29;20311;-75
2023/10/19 03:39:51;;;;;;;;;;;19.30;99.90;;;;;;4936212;29;19990;-74
2023/10/19 03:42:17;;;;;;;;;;;19.30;99.90;;;;;;4935992;29;19965;-79
2023/10/19 03:47:12;;;;;;;;;;;19.40;99.90;;;;;;4935567;29;20001;-79
2023/10/19 03:49:39;;;;;;;;;;;19.30;99.90;;;;;;4935813;29;20366;-80
2023/10/19 03:52:30;;;;;;;;;;;19.30;99.90;;;;;;4935766;29;19914;-79
2023/10/19 03:54:50;;;;;;;;;;;19.30;99.90;;;;;;4933919;29;19914;-79
2023/10/19 03:57:22;;;;;;;;;;;19.20;99.90;;;;;;4934870;29;19918;-79
2023/10/19 03:59:56;;;;;;;;;;;19.20;99.90;;;;;;4935469;29;19913;-80
2023/10/19 04:02:28;;;;;;;;;;;19.30;99.90;;;;;;4935892;29;20354;-80
2023/10/19 04:04:55;;;;;;;;;;;19.30;99.90;;;;;;4935138;29;19953;-74
2023/10/19 04:07:21;;;;;;;;;;;19.30;99.90;;;;;;4935334;29;19906;-79
2023/10/19 04:10:03;;;;;;;;;;;19.20;99.90;;;;;;4935625;29;19907;-80
2023/10/19 04:12:30;;;;;;;;;;;19.20;99.90;;;;;;4935932;29;19907;-79
2023/10/19 04:14:58;;;;;;;;;;;19.10;99.90;;;;;;4935528;29;20359;-79
2023/10/19 04:17:24;;;;;;;;;;;19.10;99.90;;;;;;4950303;29;20393;-79
2023/10/19 04:19:51;;;;;;;;;;;19.00;99.90;;;;;;4953582;29;19934;-79
2023/10/19 04:22:22;;;;;;;;;;;18.90;99.90;;;;;;4939986;29;19958;-79
2023/10/19 04:24:48;;;;;;;;;;;18.90;99.90;;;;;;4935562;29;19990;-80
2023/10/19 04:27:14;;;;;;;;;;;18.80;99.90;;;;;;4935546;29;19946;-79
2023/10/19 04:29:41;;;;;;;;;;;18.80;99.90;;;;;;4935307;29;20001;-79
2023/10/19 04:32:07;;;;;;;;;;;18.70;99.90;;;;;;4935835;29;19913;-74
2023/10/19 04:34:33;;;;;;;;;;;18.70;99.90;;;;;;4935421;29;19906;-80
2023/10/19 04:36:59;;;;;;;;;;;18.70;99.90;;;;;;4935513;29;19911;-79
2023/10/19 04:39:24;;;;;;;;;;;18.60;99.90;;;;;;4935689;29;19907;-79
2023/10/19 04:41:49;;;;;;;;;;;18.60;99.90;;;;;;4935691;29;19934;-74
2023/10/19 04:44:15;;;;;;;;;;;18.60;99.90;;;;;;4937357;29;19934;-74
2023/10/19 04:46:41;;;;;;;;;;;18.60;99.90;;;;;;4954442;29;19922;-74
2023/10/19 04:49:07;;;;;;;;;;;18.50;99.90;;;;;;4940764;29;20290;-79
2023/10/19 04:51:34;;;;;;;;;;;18.50;99.90;;;;;;4938892;29;19918;-80
2023/10/19 04:53:59;;;;;;;;;;;18.50;99.90;;;;;;4938972;29;19914;-79
2023/10/19 04:56:25;;;;;;;;;;;18.40;99.90;;;;;;4942785;29;19918;-74
2023/10/19 04:58:50;;;;;;;;;;;18.40;99.90;;;;;;4942758;29;19914;-74
2023/10/19 05:01:16;;;;;;;;;;;18.40;99.90;;;;;;4950954;29;19910;-79
2023/10/19 05:03:42;;;;;;;;;;;18.30;99.90;;;;;;4938941;29;20291;-79
2023/10/19 05:06:09;;;;;;;;;;;18.30;99.90;;;;;;4919826;29;19907;-79
2023/10/19 05:08:35;;;;;;;;;;;18.30;99.90;;;;;;4937559;29;19911;-74
2023/10/19 05:11:00;;;;;;;;;;;18.30;99.90;;;;;;4934267;29;19914;-74
2023/10/19 05:13:26;;;;;;;;;;;18.20;99.90;;;;;;4919234;29;20372;-79
2023/10/19 05:15:55;;;;;;;;;;;18.30;99.90;;;;;;4918596;29;19915;-74
2023/10/19 05:18:21;;;;;;;;;;;18.30;99.90;;;;;;4919533;29;19930;-80
2023/10/19 05:20:46;;;;;;;;;;;18.30;99.90;;;;;;4919354;29;19907;-74
2023/10/19 05:23:15;;;;;;;;;;;18.20;99.90;;;;;;4919272;29;19911;-74
2023/10/19 05:25:40;;;;;;;;;;;18.20;99.90;;;;;;4919032;29;19930;-79
2023/10/19 05:28:06;;;;;;;;;;;18.10;99.90;;;;;;4919343;29;20379;-79
2023/10/19 05:30:32;;;;;;;;;;;18.10;99.90;;;;;;4924161;29;19914;-79
2023/10/19 05:32:58;;;;;;;;;;;18.10;99.90;;;;;;4936082;29;20410;-79
2023/10/19 05:35:26;;;;;;;;;;;18.00;99.90;;;;;;4926163;29;20006;-73
2023/10/19 05:37:52;;;;;;;;;;;18.00;99.90;;;;;;4918592;29;19915;-79
2023/10/19 05:40:19;;;;;;;;;;;18.00;99.90;;;;;;4934518;29;19917;-79
2023/10/19 05:42:45;;;;;;;;;;;18.00;99.90;;;;;;4956959;29;20304;-79
2023/10/19 05:45:13;;;;;;;;;;;18.00;99.90;;;;;;4924734;29;19918;-79
2023/10/19 05:47:38;;;;;;;;;;;18.00;99.90;;;;;;4903979;29;19963;-74
2023/10/19 05:50:04;;;;;;;;;;;17.90;99.90;;;;;;4915094;29;19911;-74
2023/10/19 05:52:30;;;;;;;;;;;17.90;99.90;;;;;;4911247;29;20034;-79
2023/10/19 05:54:57;;;;;;;;;;;17.90;99.90;;;;;;4914908;29;19907;-79
2023/10/19 05:57:24;;;;;;;;;;;17.90;99.90;;;;;;4914410;29;20375;-78
2023/10/19 05:59:49;;;;;;;;;;;17.90;99.90;;;;;;4904166;29;19908;-74
2023/10/19 06:02:15;;;;;;;;;;;17.90;99.90;;;;;;4916030;29;20006;-74
2023/10/19 06:04:40;;;;;;;;;;;17.90;99.90;;;;;;4903657;29;19995;-79
2023/10/19 06:07:06;;;;;;;;;;;17.80;99.90;;;;;;4910959;29;19911;-79
2023/10/19 06:09:31;;;;;;;;;;;17.80;99.90;;;;;;4914278;29;19988;-79
2023/10/19 06:11:57;;;;;;;;;;;17.70;99.90;;;;;;4907386;29;20274;-79
2023/10/19 06:14:22;;;;;;;;;;;17.50;99.90;;;;;;4917631;29;20338;-74
2023/10/19 06:16:48;;;;;;;;;;;17.30;99.90;;;;;;4916500;29;20026;-79
2023/10/19 06:19:13;;;;;;;;;;;17.20;99.90;;;;;;4908792;29;20366;-79
2023/10/19 06:21:41;;;;;;;;;;;17.00;99.90;;;;;;4904198;29;19966;-79
2023/10/19 06:24:08;;;;;;;;;;;16.90;99.90;;;;;;4914726;29;19979;-79
2023/10/19 06:26:33;;;;;;;;;;;16.90;99.90;;;;;;4927073;29;20334;-74
2023/10/19 06:28:59;;;;;;;;;;;16.80;99.90;;;;;;4913046;29;19998;-75
2023/10/19 06:31:25;;;;;;;;;;;16.80;99.90;;;;;;4914101;29;19973;-79
2023/10/19 06:33:51;;;;;;;;;;;16.80;99.90;;;;;;4911352;29;20028;-79
2023/10/19 06:36:17;;;;;;;;;;;16.80;99.90;;;;;;4915815;29;19938;-74
2023/10/19 06:38:44;;;;;;;;;;;16.90;99.90;;;;;;4914423;29;20442;-79
2023/10/19 06:41:10;;;;;;;;;;;16.90;99.90;;;;;;4915252;29;19911;-73
2023/10/19 06:43:36;;;;;;;;;;;16.90;99.90;;;;;;4915661;29;19966;-79
2023/10/19 06:46:01;;;;;;;;;;;16.90;99.90;;;;;;4915619;29;19934;-79
2023/10/19 06:48:27;;;;;;;;;;;16.90;99.90;;;;;;4911224;29;19918;-80
2023/10/19 06:50:52;;;;;;;;;;;16.90;99.90;;;;;;4914775;29;19918;-74
2023/10/19 06:53:18;;;;;;;;;;;16.90;99.90;;;;;;4903708;29;20022;-75
2023/10/19 06:55:43;;;;;;;;;;;16.90;99.90;;;;;;4908450;29;19970;-74
2023/10/19 06:58:09;;;;;;;;;;;16.90;99.90;;;;;;4913899;29;20581;-80
2023/10/19 07:00:36;;;;;;;;;;;16.90;99.90;;;;;;4914308;29;21313;-80
2023/10/19 07:03:03;;;;;;;;;;;17.00;99.90;;;;;;4906709;29;20252;-80
2023/10/19 07:05:31;;;;;;;;;;;17.00;99.90;;;;;;4900864;29;20461;-75
2023/10/19 07:07:59;;;;;;;;;;;17.00;99.90;;;;;;4914169;29;19922;-75
2023/10/19 07:10:25;;;;;;;;;;;17.00;99.90;;;;;;4910580;29;19934;-78
2023/10/19 07:12:51;;;;;;;;;;;17.10;99.90;;;;;;4905468;29;19951;-79
2023/10/19 07:15:21;;;;;;;;;;;17.10;99.90;;;;;;4909585;29;19961;-79
2023/10/19 07:17:47;;;;;;;;;;;17.20;99.90;;;;;;4907867;29;19916;-79
2023/10/19 07:20:31;;;;;;;;;;;17.20;99.90;;;;;;4908229;29;19911;-75
2023/10/19 07:23:03;;;;;;;;;;;17.20;99.90;;;;;;4909597;29;19954;-79
2023/10/19 07:25:29;;;;;;;;;;;17.30;99.90;;;;;;4906943;29;19914;-79
2023/10/19 07:27:54;;;;;;;;;;;17.30;99.90;;;;;;4913341;29;20393;-79
2023/10/19 07:30:21;;;;;;;;;;;17.30;99.90;;;;;;4914589;29;19950;-79
2023/10/19 07:32:58;;;;;;;;;;;17.30;99.90;;;;;;4908967;29;20408;-74
2023/10/19 07:35:25;;;;;;;;;;;17.30;99.90;;;;;;4907289;29;19911;-74
2023/10/19 07:37:51;;;;;;;;;;;17.30;99.90;;;;;;4914545;29;20344;-79
2023/10/19 07:40:17;;;;;;;;;;;17.40;99.90;;;;;;4913698;29;19950;-75
2023/10/19 07:42:43;;;;;;;;;;;17.50;99.90;;;;;;4915063;29;20305;-79
2023/10/19 07:45:11;;;;;;;;;;;17.80;99.90;;;;;;4913973;29;19922;-75
2023/10/19 07:47:40;;;;;;;;;;;18.00;99.90;;;;;;4914244;29;20025;-74
2023/10/19 07:50:09;;;;;;;;;;;18.30;99.90;;;;;;4914652;29;19919;-79
2023/10/19 07:52:36;;;;;;;;;;;18.30;99.90;;;;;;4914384;29;20010;-79
2023/10/19 07:55:02;;;;;;;;;;;18.40;99.90;;;;;;4914132;29;20009;-79
2023/10/19 07:57:29;;;;;;;;;;;18.50;99.90;;;;;;4909033;29;19919;-75
2023/10/19 07:59:56;;;;;;;;;;;18.60;99.90;;;;;;4914265;29;20002;-74
2023/10/19 08:02:24;;;;;;;;;;;18.60;99.90;;;;;;4914475;29;19923;-79
2023/10/19 08:04:51;;;;;;;;;;;18.80;99.90;;;;;;4917605;29;19915;-79
2023/10/19 08:07:17;;;;;;;;;;;18.80;99.90;;;;;;4912281;29;19914;-80
2023/10/19 08:09:43;;;;;;;;;;;18.80;99.90;;;;;;4912138;29;19915;-79
2023/10/19 08:12:09;;;;;;;;;;;18.80;99.90;;;;;;4909907;29;19935;-74
2023/10/19 08:14:35;;;;;;;;;;;18.60;99.90;;;;;;4913681;29;19911;-80
2023/10/19 08:17:00;;;;;;;;;;;18.60;99.90;;;;;;4912711;29;19971;-80
2023/10/19 08:19:27;;;;;;;;;;;18.60;99.90;;;;;;4907892;29;19980;-80
2023/10/19 08:21:53;;;;;;;;;;;18.80;99.90;;;;;;4916223;29;19911;-79
2023/10/19 08:24:20;;;;;;;;;;;18.80;99.90;;;;;;4913171;29;19915;-79
2023/10/19 08:26:46;;;;;;;;;;;19.00;99.90;;;;;;4913621;29;20010;-74
2023/10/19 08:29:15;;;;;;;;;;;19.20;99.90;;;;;;4916019;29;20010;-80
2023/10/19 08:31:41;;;;;;;;;;;19.60;99.90;;;;;;4913061;29;19915;-80
2023/10/19 08:34:09;;;;;;;;;;;19.70;99.90;;;;;;4911745;29;19917;-74
2023/10/19 08:36:35;;;;;;;;;;;20.10;99.90;;;;;;4906573;29;19915;-74
2023/10/19 08:39:05;;;;;;;;;;;20.60;99.90;;;;;;4908912;29;19911;-75
2023/10/19 08:41:31;;;;;;;;;;;21.30;99.90;;;;;;4911785;29;19916;-80
2023/10/19 08:43:57;;;;;;;;;;;21.00;99.90;;;;;;4907414;29;19922;-74
2023/10/19 08:46:24;;;;;;;;;;;20.30;99.90;;;;;;4925990;29;19931;-80
2023/10/19 08:48:50;;;;;;;;;;;19.90;99.90;;;;;;4928886;29;19970;-78
2023/10/19 08:51:17;;;;;;;;;;;19.80;99.90;;;;;;4929152;29;19922;-74
2023/10/19 08:53:44;;;;;;;;;;;19.90;99.90;;;;;;4935342;29;19914;-79
2023/10/19 08:56:11;;;;;;;;;;;20.80;99.90;;;;;;4940216;29;20013;-81
2023/10/19 08:58:37;;;;;;;;;;;22.50;99.90;;;;;;4933925;29;19915;-82
2023/10/19 09:01:09;;;;;;;;;;;23.30;99.90;;;;;;4933869;29;19934;-74
2023/10/19 09:03:35;;;;;;;;;;;22.30;99.90;;;;;;4938276;29;20333;-73
2023/10/19 09:06:02;;;;;;;;;;;21.30;99.90;;;;;;4941388;29;20040;-75
2023/10/19 09:08:38;;;;;;;;;;;20.90;99.90;;;;;;4936314;29;19916;-78
2023/10/19 09:11:11;;;;;;;;;;;20.70;99.90;;;;;;4935743;29;19918;-79
2023/10/19 09:13:50;;;;;;;;;;;20.50;99.90;;;;;;4934992;29;19911;-80
2023/10/19 09:16:16;;;;;;;;;;;20.50;99.90;;;;;;4934934;29;20402;-74
2023/10/19 09:18:42;;;;;;;;;;;21.20;99.90;;;;;;4933658;29;19914;-75
2023/10/19 09:21:11;;;;;;;;;;;21.50;99.90;;;;;;4947279;29;19921;-80
2023/10/19 09:23:37;;;;;;;;;;;22.10;99.90;;;;;;4931079;29;19939;-80
2023/10/19 09:26:03;;;;;;;;;;;22.60;99.90;;;;;;4935825;29;19922;-74
2023/10/19 09:28:29;;;;;;;;;;;22.40;99.90;;;;;;4934494;29;19919;-75
2023/10/19 09:30:55;;;;;;;;;;;22.30;99.90;;;;;;4937991;29;20433;-74
2023/10/19 09:33:21;;;;;;;;;;;22.20;99.90;;;;;;4934593;29;19919;-75
2023/10/19 09:35:48;;;;;;;;;;;22.10;99.90;;;;;;4934764;29;20354;-79
2023/10/19 09:38:21;;;;;;;;;;;22.00;99.90;;;;;;4934380;29;20213;-74
2023/10/19 09:40:50;;;;;;;;;;;21.80;99.90;;;;;;4938376;29;19911;-80
2023/10/19 09:43:22;;;;;;;;;;;21.80;99.90;;;;;;4939969;29;19914;-74
2023/10/19 09:45:51;;;;;;;;;;;21.90;99.90;;;;;;4946605;29;20302;-75
2023/10/19 09:48:18;;;;;;;;;;;21.60;99.90;;;;;;4928224;29;19950;-80
2023/10/19 09:50:48;;;;;;;;;;;21.20;99.90;;;;;;4947870;29;20001;-80
2023/10/19 09:53:13;;;;;;;;;;;21.10;99.90;;;;;;4931350;29;20346;-80
2023/10/19 09:55:40;;;;;;;;;;;20.90;99.90;;;;;;4938406;29;19907;-75
2023/10/19 09:58:12;;;;;;;;;;;20.80;99.90;;;;;;4919613;29;20015;-74
2023/10/19 10:00:38;;;;;;;;;;;20.80;99.90;;;;;;4939528;29;20413;-81
2023/10/19 10:03:05;;;;;;;;;;;20.70;99.90;;;;;;4944612;29;20290;-75
2023/10/19 10:05:43;;;;;;;;;;;20.60;99.90;;;;;;4934533;29;20294;-74
2023/10/19 10:08:17;;;;;;;;;;;20.60;99.90;;;;;;4933469;29;19978;-80
2023/10/19 10:10:46;;;;;;;;;;;20.60;99.90;;;;;;4933965;29;19911;-80
2023/10/19 10:13:24;;;;;;;;;;;20.50;99.90;;;;;;4927250;29;19954;-80
2023/10/19 10:16:04;;;;;;;;;;;20.50;99.90;;;;;;4934836;29;20346;-80
2023/10/19 10:18:34;;;;;;;;;;;20.50;99.90;;;;;;4937292;29;19921;-80
2023/10/19 10:21:20;;;;;;;;;;;20.40;99.90;;;;;;4940134;29;19914;-74
2023/10/19 10:23:52;;;;;;;;;;;20.40;99.90;;;;;;4924271;29;20286;-80
2023/10/19 10:26:19;;;;;;;;;;;20.40;99.90;;;;;;4933880;29;20370;-74
2023/10/19 10:28:49;;;;;;;;;;;20.40;99.90;;;;;;4934021;29;20393;-80
2023/10/19 10:31:18;;;;;;;;;;;20.40;99.90;;;;;;4931648;29;19914;-74
2023/10/19 10:33:45;;;;;;;;;;;20.50;99.90;;;;;;4930283;29;19998;-80
2023/10/19 10:36:11;;;;;;;;;;;20.60;99.90;;;;;;4924329;29;20321;-75
2023/10/19 10:38:37;;;;;;;;;;;20.70;99.90;;;;;;4928524;29;19918;-78
2023/10/19 10:41:03;;;;;;;;;;;20.80;99.90;;;;;;4943716;28;19911;-80
2023/10/19 10:43:29;;;;;;;;;;;20.70;99.90;;;;;;4933518;29;19919;-80
2023/10/19 10:46:04;;;;;;;;;;;20.70;99.90;;;;;;4924605;29;19923;-75
2023/10/19 10:48:30;;;;;;;;;;;20.70;99.90;;;;;;4909733;29;20260;-75
2023/10/19 10:50:55;;;;;;;;;;;20.70;99.90;;;;;;4910059;29;19922;-80
2023/10/19 10:53:24;;;;;;;;;;;20.70;99.90;;;;;;4911201;29;20399;-80
2023/10/19 10:55:50;;;;;;;;;;;20.60;99.90;;;;;;4898953;29;19907;-81
2023/10/19 10:58:16;;;;;;;;;;;20.60;99.90;;;;;;4899921;29;20439;-76
2023/10/19 11:00:42;;;;;;;;;;;20.60;99.90;;;;;;4913764;29;20454;-81
2023/10/19 11:03:09;;;;;;;;;;;20.60;99.90;;;;;;4902343;29;19921;-74
2023/10/19 11:05:38;;;;;;;;;;;20.70;99.90;;;;;;4916532;29;19919;-81
2023/10/19 11:08:11;;;;;;;;;;;20.80;99.90;;;;;;4905176;29;19919;-81
2023/10/19 11:10:37;;;;;;;;;;;21.00;99.90;;;;;;4910321;29;19982;-74
2023/10/19 11:13:06;;;;;;;;;;;21.30;99.90;;;;;;4907785;29;19911;-74
2023/10/19 11:15:36;;;;;;;;;;;21.50;99.90;;;;;;4911594;29;19926;-74
2023/10/19 11:18:02;;;;;;;;;;;21.50;99.90;;;;;;4895442;29;19929;-80
2023/10/19 11:20:28;;;;;;;;;;;21.50;99.90;;;;;;4910319;29;20002;-80
2023/10/19 11:23:00;;;;;;;;;;;21.50;99.90;;;;;;4910548;29;19914;-78
2023/10/19 11:25:28;;;;;;;;;;;21.50;99.90;;;;;;4913828;29;20379;-74
2023/10/19 11:27:54;;;;;;;;;;;21.30;99.90;;;;;;4914112;29;20365;-74
2023/10/19 11:30:33;;;;;;;;;;;21.30;99.90;;;;;;4916291;29;20379;-75
2023/10/19 11:33:01;;;;;;;;;;;21.30;99.90;;;;;;4909147;29;19915;-80
2023/10/19 11:35:29;;;;;;;;;;;21.30;99.90;;;;;;4909566;29;20316;-74
2023/10/19 11:37:56;;;;;;;;;;;21.30;99.90;;;;;;4905209;29;19919;-76
2023/10/19 11:40:22;;;;;;;;;;;21.30;99.90;;;;;;4909146;29;19915;-75
2023/10/19 11:42:48;;;;;;;;;;;21.50;99.90;;;;;;4913328;29;19937;-75
2023/10/19 11:45:14;;;;;;;;;;;21.60;99.90;;;;;;4895086;29;20002;-75
2023/10/19 11:47:39;;;;;;;;;;;21.50;99.90;;;;;;4909840;29;19916;-75
2023/10/19 11:50:05;;;;;;;;;;;21.50;99.90;;;;;;4894829;29;19908;-80
2023/10/19 11:52:31;;;;;;;;;;;21.50;99.90;;;;;;4904270;29;19950;-74
2023/10/19 11:54:57;;;;;;;;;;;21.60;99.90;;;;;;4913077;29;19950;-75
2023/10/19 11:57:25;;;;;;;;;;;21.60;99.90;;;;;;4912902;29;20413;-80
2023/10/19 11:59:54;;;;;;;;;;;21.60;99.90;;;;;;4910894;29;19933;-80
2023/10/19 12:02:20;;;;;;;;;;;21.40;99.90;;;;;;4908636;29;19911;-75
2023/10/19 12:04:46;;;;;;;;;;;21.30;99.90;;;;;;4907482;29;19939;-75
2023/10/19 12:07:11;;;;;;;;;;;21.50;99.90;;;;;;4909827;29;19919;-75
2023/10/19 12:09:37;;;;;;;;;;;21.60;99.90;;;;;;4910190;29;19911;-80
2023/10/19 12:12:05;;;;;;;;;;;21.70;99.90;;;;;;4907114;29;19915;-80
2023/10/19 12:14:34;;;;;;;;;;;21.70;99.90;;;;;;4906551;29;19911;-80
2023/10/19 12:17:01;;;;;;;;;;;21.50;99.90;;;;;;4898815;29;19915;-74
2023/10/19 12:19:28;;;;;;;;;;;21.30;99.90;;;;;;4907506;29;19959;-75
2023/10/19 12:21:54;;;;;;;;;;;21.30;99.90;;;;;;4894278;29;19907;-74
2023/10/19 12:24:21;;;;;;;;;;;21.30;99.90;;;;;;4894811;29;20398;-79
2023/10/19 12:26:46;;;;;;;;;;;21.30;99.90;;;;;;4904522;29;19907;-80
2023/10/19 12:29:14;;;;;;;;;;;21.10;99.90;;;;;;4913079;29;19930;-79
2023/10/19 12:31:40;;;;;;;;;;;21.10;99.90;;;;;;4910081;29;19985;-74
2023/10/19 12:34:06;;;;;;;;;;;;;;;;;;4913107;29;19915;-75
2023/10/19 12:36:32;;;;;;;;;;;21.10;99.90;;;;;;4910552;29;19922;-74
2023/10/19 12:38:57;;;;;;;;;;;20.80;99.90;;;;;;4904309;29;20653;-80
2023/10/19 12:41:24;;;;;;;;;;;20.60;99.90;;;;;;4914327;29;19915;-81
2023/10/19 12:43:52;;;;;;;;;;;20.40;99.90;;;;;;4914567;29;20398;-75
2023/10/19 12:46:19;;;;;;;;;;;20.40;99.90;;;;;;4912042;29;20006;-75
2023/10/19 12:48:46;;;;;;;;;;;20.40;99.90;;;;;;4895658;29;19922;-74
2023/10/19 12:51:13;;;;;;;;;;;20.40;99.90;;;;;;4911811;29;19926;-81
2023/10/19 12:53:39;;;;;;;;;;;20.60;99.90;;;;;;4903444;29;19912;-74
2023/10/19 12:56:05;;;;;;;;;;;20.60;99.90;;;;;;4904765;29;21590;-74
2023/10/19 12:58:31;;;;;;;;;;;20.80;99.90;;;;;;4909840;29;19911;-75
2023/10/19 13:00:58;;;;;;;;;;;20.70;99.90;;;;;;4904983;29;19922;-80
2023/10/19 13:03:27;;;;;;;;;;;20.60;99.90;;;;;;4911946;29;20056;-81
2023/10/19 13:05:53;;;;;;;;;;;20.60;99.90;;;;;;4915964;29;20379;-79
2023/10/19 13:08:18;;;;;;;;;;;20.50;99.90;;;;;;4915482;29;19917;-79
2023/10/19 13:10:48;;;;;;;;;;;20.50;99.90;;;;;;4915297;29;19918;-80
2023/10/19 13:13:17;;;;;;;;;;;20.60;99.90;;;;;;4915741;29;19919;-80
2023/10/19 13:15:44;;;;;;;;;;;20.80;99.90;;;;;;4907218;29;20002;-80
2023/10/19 13:18:10;;;;;;;;;;;20.90;99.90;;;;;;4911220;29;19986;-79
2023/10/19 13:20:37;;;;;;;;;;;21.00;99.90;;;;;;4912098;29;20009;-80
2023/10/19 13:23:03;;;;;;;;;;;21.10;99.90;;;;;;4912442;29;20014;-75
2023/10/19 13:25:53;;;;;;;;;;;21.20;99.90;;;;;;4909188;29;19918;-79
2023/10/19 13:28:19;;;;;;;;;;;21.20;99.90;;;;;;4909962;29;19915;-79
2023/10/19 13:30:54;;;;;;;;;;;21.20;99.90;;;;;;4912392;29;20048;-80
2023/10/19 13:33:21;;;;;;;;;;;21.10;99.90;;;;;;4911295;29;19911;-79
2023/10/19 13:35:47;;;;;;;;;;;20.90;99.90;;;;;;4913168;29;20693;-74
2023/10/19 13:38:13;;;;;;;;;;;20.90;99.90;;;;;;4905922;29;20504;-74
2023/10/19 13:40:39;;;;;;;;;;;20.90;99.90;;;;;;4909285;29;20402;-75
2023/10/19 13:43:06;;;;;;;;;;;20.90;99.90;;;;;;4905266;29;20047;-75
2023/10/19 13:45:33;;;;;;;;;;;20.80;99.90;;;;;;4915103;29;19931;-81
2023/10/19 13:47:59;;;;;;;;;;;20.70;99.90;;;;;;4913975;29;20010;-74
2023/10/19 13:50:26;;;;;;;;;;;20.60;99.90;;;;;;4905349;29;20402;-75
2023/10/19 13:52:53;;;;;;;;;;;20.40;99.90;;;;;;4913142;29;19919;-79
2023/10/19 13:55:20;;;;;;;;;;;20.20;99.90;;;;;;4897909;29;19955;-74
2023/10/19 13:57:46;;;;;;;;;;;20.00;99.90;;;;;;4900062;29;19915;-79
2023/10/19 14:00:24;;;;;;;;;;;19.80;99.90;;;;;;4918119;29;19915;-79
2023/10/19 14:02:53;;;;;;;;;;;19.70;99.90;;;;;;4914457;29;19914;-77
2023/10/19 14:05:19;;;;;;;;;;;19.30;99.90;;;;;;4897844;29;19919;-78
2023/10/19 14:07:46;;;;;;;;;;;18.50;99.90;;;;;;4907097;29;19966;-79
2023/10/19 14:10:12;;;;;;;;;;;18.20;99.90;;;;;;4915541;29;19980;-79
2023/10/19 14:12:41;;;;;;;;;;;17.80;99.90;;;;;;4910817;29;19911;-81
2023/10/19 14:15:13;;;;;;;;;;;17.70;99.90;;;;;;4911790;29;19911;-77
2023/10/19 14:17:38;;;;;;;;;;;17.50;99.90;;;;;;4914132;29;20066;-75
2023/10/19 14:20:05;;;;;;;;;;;17.40;99.90;;;;;;4898610;29;19951;-78
2023/10/19 14:22:34;;;;;;;;;;;17.40;99.90;;;;;;4903660;29;20375;-79
2023/10/19 14:25:00;;;;;;;;;;;17.40;99.90;;;;;;4911988;29;19927;-80
2023/10/19 14:27:25;;;;;;;;;;;17.30;99.90;;;;;;4917554;29;19911;-75
2023/10/19 14:29:51;;;;;;;;;;;17.30;99.90;;;;;;4898981;29;20275;-75
2023/10/19 14:32:17;;;;;;;;;;;17.30;99.90;;;;;;4911191;29;19996;-75
2023/10/19 14:34:42;;;;;;;;;;;17.30;99.90;;;;;;4886586;29;19916;-79
2023/10/19 14:37:08;;;;;;;;;;;17.30;99.90;;;;;;4918574;29;19911;-80
2023/10/19 14:39:33;;;;;;;;;;;17.30;99.90;;;;;;4916829;29;20434;-80
2023/10/19 14:41:59;;;;;;;;;;;17.30;99.90;;;;;;4908978;29;19946;-77